ENRS/RET METAR and TAF weather

Enter ICAO airport designator
Station Type Date Time Source
ENRS METAR 2021/05/11 18:20 UTC NOAA

ENRS 111820Z 08009KT 9999 -SHRA FEW025 BKN062 06/04 Q1013


Station Type Date Time Source
ENRS Decoded METAR 2021/05/11 18:20 UTC NOAA

Rost Flyplass, Norway (ENRS) 67-31N 012-06E
May 11, 2021 - 02:20 PM EDT / 2021.05.11 1820 UTC
Wind: from the E (080 degrees) at 10 MPH (9 KT):0
Visibility: greater than 7 mile(s):0
Sky conditions: mostly cloudy
Weather: light rain showers
Temperature: 42 F (6 C)
Dew Point: 39 F (4 C)
Relative Humidity: 86%
Pressure (altimeter): 29.91 in. Hg (1013 hPa)
ob: ENRS 111820Z 08009KT 9999 -SHRA FEW025 BKN062 06/04 Q1013
cycle: 18

Station Type Date Time Source
ENRS TAF UTC NOAA

Error!

Example: see airport list